Time,TemperatureF,DewpointF,PressureIn,WindDirection,WindDirectionDegrees,WindSpeedMPH,WindSpeedGustMPH,Humidity,HourlyPrecipIn,Conditions,Clouds,dailyrainin,SoftwareType,DateUTC
2013-05-01 00:09:00,60.9,40.0,29.84,East,86,0.0,1.0,46,0.00,,,0.00,weatherlink.com 1.10,2013-05-01 07:09:00,
2013-05-01 00:24:00,60.6,41.0,29.84,East,87,0.0,2.0,48,0.00,,,0.00,weatherlink.com 1.10,2013-05-01 07:24:00,
2013-05-01 00:39:00,60.0,39.0,29.84,East,87,0.0,1.0,46,0.00,,,0.00,weatherlink.com 1.10,2013-05-01 07:39:00,
2013-05-01 00:54:00,59.2,38.0,29.84,East,87,0.0,1.0,45,0.00,,,0.00,weatherlink.com 1.10,2013-05-01 07:54:00,
2013-05-01 01:09:00,59.3,37.0,29.83,North,3,0.0,2.0,43,0.00,,,0.00,weatherlink.com 1.10,2013-05-01 08:09:00,
2013-05-01 01:24:00,59.5,36.0,29.84,NNE,14,0.0,2.0,42,0.00,,,0.00,weatherlink.com 1.10,2013-05-01 08:24:00,
2013-05-01 01:39:00,55.9,42.0,29.84,NNW,329,1.0,1.0,60,0.00,,,0.00,weatherlink.com 1.10,2013-05-01 08:39:00,
2013-05-01 01:55:00,54.8,41.0,29.84,NNW,329,0.0,2.0,60,0.00,,,0.00,weatherlink.com 1.10,2013-05-01 08:55:00,
2013-05-01 02:10:00,55.5,41.0,29.84,NNW,338,0.0,3.0,59,0.00,,,0.00,weatherlink.com 1.10,2013-05-01 09:10:00,
2013-05-01 02:25:00,53.9,40.0,29.84,NW,304,0.0,6.0,59,0.00,,,0.00,weatherlink.com 1.10,2013-05-01 09:25:00,
2013-05-01 02:40:00,53.9,35.0,29.83,NW,304,0.0,1.0,50,0.00,,,0.00,weatherlink.com 1.10,2013-05-01 09:40:00,
2013-05-01 02:55:00,55.7,35.0,29.83,NNW,327,0.0,1.0,46,0.00,,,0.00,weatherlink.com 1.10,2013-05-01 09:55:00,
2013-05-01 03:10:00,53.6,39.0,29.83,WNW,288,0.0,5.0,59,0.00,,,0.00,weatherlink.com 1.10,2013-05-01 10:10:00,
2013-05-01 03:25:00,54.7,34.0,29.83,NW,313,1.0,3.0,46,0.00,,,0.00,weatherlink.com 1.10,2013-05-01 10:25:00,
2013-05-01 03:40:00,55.3,35.0,29.84,WNW,302,1.0,5.0,47,0.00,,,0.00,weatherlink.com 1.10,2013-05-01 10:40:00,
2013-05-01 03:55:00,57.0,29.0,29.83,NNE,33,0.0,1.0,35,0.00,,,0.00,weatherlink.com 1.10,2013-05-01 10:55:00,
2013-05-01 04:10:00,59.3,23.0,29.84,ESE,116,1.0,4.0,25,0.00,,,0.00,weatherlink.com 1.10,2013-05-01 11:10:00,
2013-05-01 04:25:00,55.0,35.0,29.84,WNW,286,2.0,4.0,48,0.00,,,0.00,weatherlink.com 1.10,2013-05-01 11:25:00,
2013-05-01 04:40:00,58.4,23.0,29.85,West,274,0.0,4.0,25,0.00,,,0.00,weatherlink.com 1.10,2013-05-01 11:40:00,
2013-05-01 04:55:00,62.9,22.0,29.85,NNW,343,0.0,9.0,21,0.00,,,0.00,weatherlink.com 1.10,2013-05-01 11:55:00,
2013-05-01 05:10:00,62.9,22.0,29.85,NE,38,0.0,2.0,21,0.00,,,0.00,weatherlink.com 1.10,2013-05-01 12:10:00,
2013-05-01 05:25:00,63.3,23.0,29.85,NE,40,0.0,5.0,21,0.00,,,0.00,weatherlink.com 1.10,2013-05-01 12:25:00,
2013-05-01 05:40:00,63.7,21.0,29.86,East,99,2.0,9.0,19,0.00,,,0.00,weatherlink.com 1.10,2013-05-01 12:40:00,
2013-05-01 05:55:00,64.1,22.0,29.87,NNE,16,0.0,8.0,20,0.00,,,0.00,weatherlink.com 1.10,2013-05-01 12:55:00,
2013-05-01 06:10:00,63.6,19.0,29.87,ENE,75,0.0,8.0,18,0.00,,,0.00,weatherlink.com 1.10,2013-05-01 13:10:00,
2013-05-01 06:25:00,64.4,20.0,29.88,ESE,113,1.0,6.0,18,0.00,,,0.00,weatherlink.com 1.10,2013-05-01 13:25:00,
2013-05-01 06:40:00,64.3,18.0,29.88,NE,44,0.0,8.0,17,0.00,,,0.00,weatherlink.com 1.10,2013-05-01 13:40:00,
2013-05-01 06:55:00,64.8,24.0,29.89,ESE,120,0.0,5.0,21,0.00,,,0.00,weatherlink.com 1.10,2013-05-01 13:55:00,
2013-05-01 07:10:00,64.4,25.0,29.90,ENE,71,0.0,7.0,22,0.00,,,0.00,weatherlink.com 1.10,2013-05-01 14:10:00,
2013-05-01 07:25:00,64.6,24.0,29.91,WSW,244,0.0,3.0,21,0.00,,,0.00,weatherlink.com 1.10,2013-05-01 14:25:00,
2013-05-01 07:40:00,64.8,26.0,29.91,NNE,17,0.0,4.0,23,0.00,,,0.00,weatherlink.com 1.10,2013-05-01 14:40:00,
2013-05-01 07:55:00,65.4,25.0,29.91,East,92,0.0,4.0,22,0.00,,,0.00,weatherlink.com 1.10,2013-05-01 14:55:00,
2013-05-01 08:10:00,66.0,27.0,29.91,NNE,26,1.0,4.0,23,0.00,,,0.00,weatherlink.com 1.10,2013-05-01 15:10:00,
2013-05-01 08:25:00,67.5,26.0,29.92,ENE,76,0.0,6.0,21,0.00,,,0.00,weatherlink.com 1.10,2013-05-01 15:25:00,
2013-05-01 08:40:00,69.3,28.0,29.93,NNE,28,1.0,6.0,21,0.00,,,0.00,weatherlink.com 1.10,2013-05-01 15:40:00,
2013-05-01 08:56:00,70.9,25.0,29.93,ESE,109,1.0,4.0,18,0.00,,,0.00,weatherlink.com 1.10,2013-05-01 15:56:00,
2013-05-01 09:11:00,72.7,25.0,29.93,NE,34,0.0,2.0,17,0.00,,,0.00,weatherlink.com 1.10,2013-05-01 16:11:00,
2013-05-01 09:26:00,74.3,32.0,29.94,NNW,327,0.0,3.0,21,0.00,,,0.00,weatherlink.com 1.10,2013-05-01 16:26:00,
2013-05-01 09:41:00,74.8,26.0,29.94,North,6,1.0,6.0,16,0.00,,,0.00,weatherlink.com 1.10,2013-05-01 16:41:00,
2013-05-01 09:56:00,76.3,25.0,29.94,NW,325,0.0,4.0,15,0.00,,,0.00,weatherlink.com 1.10,2013-05-01 16:56:00,
2013-05-01 10:11:00,77.2,29.0,29.94,East,92,0.0,6.0,17,0.00,,,0.00,weatherlink.com 1.10,2013-05-01 17:11:00,
2013-05-01 10:26:00,80.0,25.0,29.94,ESE,121,1.0,6.0,13,0.00,,,0.00,weatherlink.com 1.10,2013-05-01 17:26:00,
2013-05-01 10:41:00,81.2,20.0,29.95,SE,137,1.0,6.0,10,0.00,,,0.00,weatherlink.com 1.10,2013-05-01 17:41:00,
2013-05-01 10:56:00,81.7,26.0,29.95,SSE,155,0.0,5.0,13,0.00,,,0.00,weatherlink.com 1.10,2013-05-01 17:56:00,
2013-05-01 11:11:00,82.9,31.0,29.96,SSE,159,3.0,4.0,15,0.00,,,0.00,weatherlink.com 1.10,2013-05-01 18:11:00,
2013-05-01 11:26:00,82.5,23.0,29.96,East,86,3.0,9.0,11,0.00,,,0.00,weatherlink.com 1.10,2013-05-01 18:26:00,
2013-05-01 11:41:00,83.5,24.0,29.96,ENE,58,1.0,4.0,11,0.00,,,0.00,weatherlink.com 1.10,2013-05-01 18:41:00,
2013-05-01 11:56:00,83.6,28.0,29.96,East,92,2.0,6.0,13,0.00,,,0.00,weatherlink.com 1.10,2013-05-01 18:56:00,
2013-05-01 12:11:00,83.9,22.0,29.96,East,99,0.0,7.0,10,0.00,,,0.00,weatherlink.com 1.10,2013-05-01 19:11:00,
2013-05-01 12:26:00,84.4,24.0,29.96,NE,35,1.0,4.0,11,0.00,,,0.00,weatherlink.com 1.10,2013-05-01 19:26:00,
2013-05-01 12:41:00,84.4,22.0,29.96,ESE,109,0.0,4.0,10,0.00,,,0.00,weatherlink.com 1.10,2013-05-01 19:41:00,
2013-05-01 12:56:00,86.2,21.0,29.96,ENE,76,0.0,6.0,9,0.00,,,0.00,weatherlink.com 1.10,2013-05-01 19:56:00,
2013-05-01 13:11:00,86.8,28.0,29.96,ENE,65,0.0,3.0,12,0.00,,,0.00,weatherlink.com 1.10,2013-05-01 20:11:00,
2013-05-01 13:26:00,86.4,26.0,29.96,NE,51,0.0,5.0,11,0.00,,,0.00,weatherlink.com 1.10,2013-05-01 20:26:00,
2013-05-01 13:41:00,87.4,22.0,29.96,ENE,74,1.0,7.0,9,0.00,,,0.00,weatherlink.com 1.10,2013-05-01 20:41:00,
2013-05-01 13:56:00,87.9,27.0,29.96,ESE,104,7.0,7.0,11,0.00,,,0.00,weatherlink.com 1.10,2013-05-01 20:56:00,
2013-05-01 14:11:00,87.1,24.0,29.95,East,81,2.0,8.0,10,0.00,,,0.00,weatherlink.com 1.10,2013-05-01 21:11:00,
2013-05-01 14:26:00,87.5,27.0,29.95,ENE,65,0.0,11.0,11,0.00,,,0.00,weatherlink.com 1.10,2013-05-01 21:26:00,
2013-05-01 14:41:00,87.8,22.0,29.95,ENE,59,0.0,6.0,9,0.00,,,0.00,weatherlink.com 1.10,2013-05-01 21:41:00,
2013-05-01 14:56:00,87.9,22.0,29.95,East,87,1.0,7.0,9,0.00,,,0.00,weatherlink.com 1.10,2013-05-01 21:56:00,
2013-05-01 15:11:00,88.5,28.0,29.95,NE,38,0.0,7.0,11,0.00,,,0.00,weatherlink.com 1.10,2013-05-01 22:11:00,
2013-05-01 15:27:00,89.2,23.0,29.95,ENE,70,1.0,4.0,9,0.00,,,0.00,weatherlink.com 1.10,2013-05-01 22:27:00,
2013-05-01 15:42:00,90.0,26.0,29.95,ENE,64,1.0,3.0,10,0.00,,,0.00,weatherlink.com 1.10,2013-05-01 22:42:00,
2013-05-01 15:57:00,90.2,24.0,29.95,ENE,78,1.0,7.0,9,0.00,,,0.00,weatherlink.com 1.10,2013-05-01 22:57:00,
2013-05-01 16:12:00,90.7,27.0,29.95,East,93,0.0,4.0,10,0.00,,,0.00,weatherlink.com 1.10,2013-05-01 23:12:00,
2013-05-01 16:27:00,91.3,27.0,29.95,ENE,78,0.0,4.0,10,0.00,,,0.00,weatherlink.com 1.10,2013-05-01 23:27:00,
2013-05-01 16:42:00,87.2,48.0,29.95,SW,219,4.0,5.0,26,0.00,,,0.00,weatherlink.com 1.10,2013-05-01 23:42:00,
2013-05-01 16:57:00,83.9,49.0,29.95,WSW,245,2.0,6.0,30,0.00,,,0.00,weatherlink.com 1.10,2013-05-01 23:57:00,
2013-05-01 17:12:00,82.4,49.0,29.95,West,261,3.0,7.0,31,0.00,,,0.00,weatherlink.com 1.10,2013-05-02 00:12:00,
2013-05-01 17:27:00,82.1,47.0,29.95,SW,223,1.0,6.0,29,0.00,,,0.00,weatherlink.com 1.10,2013-05-02 00:27:00,
2013-05-01 17:42:00,81.6,47.0,29.95,SW,229,0.0,5.0,30,0.00,,,0.00,weatherlink.com 1.10,2013-05-02 00:42:00,
2013-05-01 17:57:00,81.6,46.0,29.96,SW,234,1.0,3.0,29,0.00,,,0.00,weatherlink.com 1.10,2013-05-02 00:57:00,
2013-05-01 18:12:00,81.6,44.0,29.96,West,275,0.0,2.0,27,0.00,,,0.00,weatherlink.com 1.10,2013-05-02 01:12:00,
2013-05-01 18:27:00,80.7,47.0,29.96,WSW,241,0.0,1.0,31,0.00,,,0.00,weatherlink.com 1.10,2013-05-02 01:27:00,
2013-05-01 18:42:00,79.8,49.0,29.96,SW,225,0.0,1.0,34,0.00,,,0.00,weatherlink.com 1.10,2013-05-02 01:42:00,
2013-05-01 18:57:00,76.7,48.0,29.96,SSE,165,0.0,2.0,37,0.00,,,0.00,weatherlink.com 1.10,2013-05-02 01:57:00,
2013-05-01 19:12:00,73.4,48.0,29.97,SSE,164,0.0,1.0,40,0.00,,,0.00,weatherlink.com 1.10,2013-05-02 02:12:00,
2013-05-01 19:27:00,70.5,47.0,29.98,South,169,0.0,2.0,43,0.00,,,0.00,weatherlink.com 1.10,2013-05-02 02:27:00,
2013-05-01 19:42:00,68.3,47.0,29.98,SE,144,0.0,2.0,46,0.00,,,0.00,weatherlink.com 1.10,2013-05-02 02:42:00,
2013-05-01 19:57:00,66.2,46.0,29.99,SE,143,0.0,1.0,48,0.00,,,0.00,weatherlink.com 1.10,2013-05-02 02:57:00,
2013-05-01 20:12:00,64.3,47.0,30.00,SE,144,0.0,0.0,54,0.00,,,0.00,weatherlink.com 1.10,2013-05-02 03:12:00,
2013-05-01 20:27:00,62.3,47.0,30.00,SE,144,0.0,0.0,57,0.00,,,0.00,weatherlink.com 1.10,2013-05-02 03:27:00,
2013-05-01 20:42:00,60.5,45.0,30.01,SE,144,0.0,0.0,58,0.00,,,0.00,weatherlink.com 1.10,2013-05-02 03:42:00,
2013-05-01 20:57:00,59.0,44.0,30.02,SE,144,0.0,0.0,59,0.00,,,0.00,weatherlink.com 1.10,2013-05-02 03:57:00,
2013-05-01 21:12:00,57.9,44.0,30.02,SE,144,0.0,0.0,61,0.00,,,0.00,weatherlink.com 1.10,2013-05-02 04:12:00,
2013-05-01 21:27:00,56.9,44.0,30.03,SE,144,0.0,0.0,62,0.00,,,0.00,weatherlink.com 1.10,2013-05-02 04:27:00,